sensor_id;sensor_type;location;lat;lon;timestamp;P1;durP1;ratioP1;P2;durP2;ratioP2
20458;SDS011;10388;52.314;7.938;2023-03-01T00:02:21;9.53;;;6.10;;
20458;SDS011;10388;52.314;7.938;2023-03-01T00:04:51;8.03;;;5.77;;
20458;SDS011;10388;52.314;7.938;2023-03-01T00:07:22;9.07;;;5.87;;
20458;SDS011;10388;52.314;7.938;2023-03-01T00:09:52;6.93;;;5.80;;
20458;SDS011;10388;52.314;7.938;2023-03-01T00:12:24;8.73;;;5.93;;
20458;SDS011;10388;52.314;7.938;2023-03-01T00:14:54;13.10;;;6.77;;
20458;SDS011;10388;52.314;7.938;2023-03-01T00:17:25;9.03;;;6.63;;
20458;SDS011;10388;52.314;7.938;2023-03-01T00:19:57;7.40;;;5.60;;
20458;SDS011;10388;52.314;7.938;2023-03-01T00:22:27;9.53;;;6.33;;
20458;SDS011;10388;52.314;7.938;2023-03-01T00:24:58;10.00;;;6.47;;
20458;SDS011;10388;52.314;7.938;2023-03-01T00:27:28;8.87;;;5.83;;
20458;SDS011;10388;52.314;7.938;2023-03-01T00:29:59;7.27;;;5.80;;
20458;SDS011;10388;52.314;7.938;2023-03-01T00:32:30;9.77;;;6.33;;
20458;SDS011;10388;52.314;7.938;2023-03-01T00:35:00;9.70;;;6.87;;
20458;SDS011;10388;52.314;7.938;2023-03-01T00:37:31;10.33;;;6.57;;
20458;SDS011;10388;52.314;7.938;2023-03-01T00:40:01;9.57;;;7.27;;
20458;SDS011;10388;52.314;7.938;2023-03-01T00:42:36;10.53;;;6.53;;
20458;SDS011;10388;52.314;7.938;2023-03-01T00:45:06;11.40;;;6.70;;
20458;SDS011;10388;52.314;7.938;2023-03-01T00:47:37;7.97;;;5.80;;
20458;SDS011;10388;52.314;7.938;2023-03-01T00:50:08;7.87;;;5.70;;
20458;SDS011;10388;52.314;7.938;2023-03-01T00:52:39;9.00;;;5.83;;
20458;SDS011;10388;52.314;7.938;2023-03-01T00:55:10;7.80;;;5.33;;
20458;SDS011;10388;52.314;7.938;2023-03-01T00:57:41;7.60;;;5.40;;
20458;SDS011;10388;52.314;7.938;2023-03-01T04:31:20;11.10;;;7.23;;
20458;SDS011;10388;52.314;7.938;2023-03-01T04:33:52;9.67;;;6.67;;
20458;SDS011;10388;52.314;7.938;2023-03-01T04:36:25;12.33;;;6.50;;
20458;SDS011;10388;52.314;7.938;2023-03-01T04:38:57;10.17;;;7.03;;
20458;SDS011;10388;52.314;7.938;2023-03-01T04:41:28;8.23;;;6.00;;
20458;SDS011;10388;52.314;7.938;2023-03-01T04:43:58;9.53;;;6.50;;
20458;SDS011;10388;52.314;7.938;2023-03-01T04:46:30;11.17;;;6.77;;
20458;SDS011;10388;52.314;7.938;2023-03-01T04:49:00;11.47;;;7.13;;
20458;SDS011;10388;52.314;7.938;2023-03-01T04:51:31;9.60;;;6.60;;
20458;SDS011;10388;52.314;7.938;2023-03-01T04:54:02;10.07;;;6.27;;
20458;SDS011;10388;52.314;7.938;2023-03-01T04:56:33;9.80;;;6.70;;
20458;SDS011;10388;52.314;7.938;2023-03-01T04:59:03;11.37;;;7.00;;
20458;SDS011;10388;52.314;7.938;2023-03-01T05:01:35;9.90;;;6.47;;
20458;SDS011;10388;52.314;7.938;2023-03-01T05:04:06;11.30;;;7.17;;
20458;SDS011;10388;52.314;7.938;2023-03-01T05:06:42;8.80;;;6.30;;
20458;SDS011;10388;52.314;7.938;2023-03-01T05:09:14;12.07;;;6.40;;
20458;SDS011;10388;52.314;7.938;2023-03-01T05:11:45;10.23;;;6.33;;
20458;SDS011;10388;52.314;7.938;2023-03-01T05:14:16;10.87;;;6.43;;
20458;SDS011;10388;52.314;7.938;2023-03-01T05:16:46;9.10;;;6.70;;
20458;SDS011;10388;52.314;7.938;2023-03-01T05:19:17;9.40;;;6.23;;
20458;SDS011;10388;52.314;7.938;2023-03-01T05:21:52;11.60;;;6.97;;
20458;SDS011;10388;52.314;7.938;2023-03-01T05:24:34;10.50;;;6.10;;
20458;SDS011;10388;52.314;7.938;2023-03-01T05:27:05;8.93;;;5.90;;
20458;SDS011;10388;52.314;7.938;2023-03-01T05:29:36;10.40;;;6.40;;
20458;SDS011;10388;52.314;7.938;2023-03-01T05:32:09;6.83;;;5.50;;
20458;SDS011;10388;52.314;7.938;2023-03-01T05:34:44;11.30;;;6.53;;
20458;SDS011;10388;52.314;7.938;2023-03-01T05:37:16;9.23;;;6.40;;
20458;SDS011;10388;52.314;7.938;2023-03-01T05:39:46;7.63;;;5.87;;
20458;SDS011;10388;52.314;7.938;2023-03-01T05:42:20;9.80;;;6.53;;
20458;SDS011;10388;52.314;7.938;2023-03-01T05:44:50;10.07;;;6.47;;
20458;SDS011;10388;52.314;7.938;2023-03-01T05:47:21;12.77;;;6.67;;
20458;SDS011;10388;52.314;7.938;2023-03-01T05:49:51;9.60;;;6.10;;
20458;SDS011;10388;52.314;7.938;2023-03-01T05:52:22;11.20;;;6.87;;
20458;SDS011;10388;52.314;7.938;2023-03-01T05:54:52;13.10;;;7.13;;
20458;SDS011;10388;52.314;7.938;2023-03-01T05:57:23;9.10;;;6.60;;
20458;SDS011;10388;52.314;7.938;2023-03-01T05:59:53;10.03;;;6.63;;
20458;SDS011;10388;52.314;7.938;2023-03-01T06:02:24;8.67;;;6.20;;
20458;SDS011;10388;52.314;7.938;2023-03-01T06:04:55;10.03;;;6.87;;
20458;SDS011;10388;52.314;7.938;2023-03-01T06:07:25;8.67;;;5.90;;
20458;SDS011;10388;52.314;7.938;2023-03-01T06:09:56;10.80;;;6.43;;
20458;SDS011;10388;52.314;7.938;2023-03-01T06:12:29;10.17;;;6.73;;
20458;SDS011;10388;52.314;7.938;2023-03-01T06:15:04;10.97;;;6.37;;
20458;SDS011;10388;52.314;7.938;2023-03-01T06:17:35;11.87;;;6.87;;
20458;SDS011;10388;52.314;7.938;2023-03-01T06:20:12;10.40;;;7.03;;
20458;SDS011;10388;52.314;7.938;2023-03-01T06:22:48;12.43;;;7.13;;
20458;SDS011;10388;52.314;7.938;2023-03-01T06:25:21;9.60;;;6.63;;
20458;SDS011;10388;52.314;7.938;2023-03-01T06:27:53;9.90;;;7.47;;
20458;SDS011;10388;52.314;7.938;2023-03-01T06:30:24;10.33;;;7.27;;
20458;SDS011;10388;52.314;7.938;2023-03-01T06:32:56;10.10;;;7.07;;
20458;SDS011;10388;52.314;7.938;2023-03-01T06:35:31;11.97;;;7.10;;
20458;SDS011;10388;52.314;7.938;2023-03-01T06:38:02;12.47;;;7.33;;
20458;SDS011;10388;52.314;7.938;2023-03-01T06:40:33;10.23;;;7.07;;
20458;SDS011;10388;52.314;7.938;2023-03-01T06:43:05;9.90;;;6.77;;
20458;SDS011;10388;52.314;7.938;2023-03-01T06:45:37;13.03;;;7.67;;
20458;SDS011;10388;52.314;7.938;2023-03-01T06:48:07;11.43;;;7.17;;
20458;SDS011;10388;52.314;7.938;2023-03-01T06:50:38;12.33;;;7.40;;
20458;SDS011;10388;52.314;7.938;2023-03-01T06:53:08;11.87;;;6.73;;
20458;SDS011;10388;52.314;7.938;2023-03-01T06:55:39;11.67;;;7.77;;
20458;SDS011;10388;52.314;7.938;2023-03-01T06:58:09;11.63;;;6.93;;
20458;SDS011;10388;52.314;7.938;2023-03-01T07:00:41;10.30;;;7.57;;
20458;SDS011;10388;52.314;7.938;2023-03-01T07:03:12;12.23;;;7.50;;
20458;SDS011;10388;52.314;7.938;2023-03-01T07:05:43;9.40;;;7.07;;
20458;SDS011;10388;52.314;7.938;2023-03-01T07:08:14;11.77;;;7.87;;
20458;SDS011;10388;52.314;7.938;2023-03-01T07:10:45;11.20;;;7.07;;
20458;SDS011;10388;52.314;7.938;2023-03-01T07:13:15;15.63;;;7.77;;
20458;SDS011;10388;52.314;7.938;2023-03-01T07:15:46;14.07;;;7.93;;
20458;SDS011;10388;52.314;7.938;2023-03-01T07:18:16;11.60;;;8.23;;
20458;SDS011;10388;52.314;7.938;2023-03-01T07:20:47;15.27;;;7.57;;
20458;SDS011;10388;52.314;7.938;2023-03-01T07:23:17;15.57;;;8.03;;
20458;SDS011;10388;52.314;7.938;2023-03-01T07:25:52;12.13;;;8.10;;
20458;SDS011;10388;52.314;7.938;2023-03-01T07:28:23;12.60;;;8.37;;
20458;SDS011;10388;52.314;7.938;2023-03-01T07:30:55;12.63;;;8.90;;
20458;SDS011;10388;52.314;7.938;2023-03-01T07:33:30;17.63;;;9.10;;
20458;SDS011;10388;52.314;7.938;2023-03-01T07:36:01;23.37;;;9.63;;
20458;SDS011;10388;52.314;7.938;2023-03-01T07:38:33;17.43;;;11.00;;
20458;SDS011;10388;52.314;7.938;2023-03-01T07:41:03;17.47;;;9.90;;
20458;SDS011;10388;52.314;7.938;2023-03-01T07:43:35;16.33;;;9.77;;
20458;SDS011;10388;52.314;7.938;2023-03-01T07:46:06;12.87;;;9.27;;
20458;SDS011;10388;52.314;7.938;2023-03-01T07:48:36;16.23;;;9.87;;
20458;SDS011;10388;52.314;7.938;2023-03-01T07:51:07;12.47;;;8.90;;
20458;SDS011;10388;52.314;7.938;2023-03-01T07:53:38;13.07;;;9.27;;
20458;SDS011;10388;52.314;7.938;2023-03-01T07:56:09;14.07;;;9.90;;
20458;SDS011;10388;52.314;7.938;2023-03-01T07:58:41;12.70;;;9.37;;
20458;SDS011;10388;52.314;7.938;2023-03-01T08:01:14;14.80;;;10.07;;
20458;SDS011;10388;52.314;7.938;2023-03-01T08:03:46;16.27;;;10.50;;
20458;SDS011;10388;52.314;7.938;2023-03-01T08:06:17;19.20;;;10.80;;
20458;SDS011;10388;52.314;7.938;2023-03-01T08:08:48;16.73;;;10.37;;
20458;SDS011;10388;52.314;7.938;2023-03-01T08:11:18;17.63;;;11.33;;
20458;SDS011;10388;52.314;7.938;2023-03-01T08:13:49;15.57;;;10.67;;
20458;SDS011;10388;52.314;7.938;2023-03-01T08:16:20;15.80;;;11.80;;
20458;SDS011;10388;52.314;7.938;2023-03-01T08:18:50;14.67;;;10.87;;
20458;SDS011;10388;52.314;7.938;2023-03-01T08:21:21;17.43;;;12.20;;
20458;SDS011;10388;52.314;7.938;2023-03-01T08:23:51;16.10;;;11.57;;
20458;SDS011;10388;52.314;7.938;2023-03-01T08:26:22;18.53;;;12.30;;
20458;SDS011;10388;52.314;7.938;2023-03-01T08:28:52;17.97;;;11.83;;
20458;SDS011;10388;52.314;7.938;2023-03-01T08:31:25;17.40;;;11.87;;
20458;SDS011;10388;52.314;7.938;2023-03-01T08:34:00;16.47;;;11.67;;
20458;SDS011;10388;52.314;7.938;2023-03-01T08:36:33;18.50;;;12.23;;
20458;SDS011;10388;52.314;7.938;2023-03-01T08:39:07;18.40;;;12.00;;
20458;SDS011;10388;52.314;7.938;2023-03-01T08:41:39;14.50;;;10.87;;
20458;SDS011;10388;52.314;7.938;2023-03-01T08:44:10;14.93;;;11.00;;
20458;SDS011;10388;52.314;7.938;2023-03-01T08:46:42;15.43;;;11.40;;
20458;SDS011;10388;52.314;7.938;2023-03-01T08:49:15;15.47;;;10.53;;
20458;SDS011;10388;52.314;7.938;2023-03-01T08:51:47;14.73;;;10.20;;
20458;SDS011;10388;52.314;7.938;2023-03-01T08:54:19;14.90;;;9.87;;
20458;SDS011;10388;52.314;7.938;2023-03-01T08:56:51;11.60;;;9.00;;
20458;SDS011;10388;52.314;7.938;2023-03-01T08:59:21;12.67;;;9.27;;
20458;SDS011;10388;52.314;7.938;2023-03-01T09:01:52;10.87;;;8.33;;
20458;SDS011;10388;52.314;7.938;2023-03-01T09:04:23;11.77;;;8.47;;
20458;SDS011;10388;52.314;7.938;2023-03-01T09:06:53;11.03;;;7.93;;
20458;SDS011;10388;52.314;7.938;2023-03-01T09:09:24;12.43;;;8.83;;
20458;SDS011;10388;52.314;7.938;2023-03-01T09:11:54;10.63;;;7.70;;
20458;SDS011;10388;52.314;7.938;2023-03-01T09:14:25;7.47;;;6.30;;
20458;SDS011;10388;52.314;7.938;2023-03-01T09:16:56;9.50;;;6.80;;
20458;SDS011;10388;52.314;7.938;2023-03-01T09:19:27;9.13;;;6.67;;
20458;SDS011;10388;52.314;7.938;2023-03-01T09:21:58;10.67;;;6.70;;
20458;SDS011;10388;52.314;7.938;2023-03-01T09:24:28;9.33;;;6.60;;
20458;SDS011;10388;52.314;7.938;2023-03-01T09:26:59;7.53;;;5.40;;
20458;SDS011;10388;52.314;7.938;2023-03-01T09:29:30;7.37;;;5.43;;
20458;SDS011;10388;52.314;7.938;2023-03-01T09:32:01;7.50;;;5.10;;
20458;SDS011;10388;52.314;7.938;2023-03-01T09:34:31;7.47;;;5.20;;
20458;SDS011;10388;52.314;7.938;2023-03-01T09:37:22;6.13;;;4.20;;
20458;SDS011;10388;52.314;7.938;2023-03-01T09:39:52;6.93;;;4.47;;
20458;SDS011;10388;52.314;7.938;2023-03-01T09:42:23;6.17;;;4.30;;
20458;SDS011;10388;52.314;7.938;2023-03-01T09:44:55;4.77;;;3.67;;
20458;SDS011;10388;52.314;7.938;2023-03-01T09:47:34;5.23;;;3.33;;
20458;SDS011;10388;52.314;7.938;2023-03-01T09:50:09;4.83;;;3.03;;
20458;SDS011;10388;52.314;7.938;2023-03-01T10:03:58;4.13;;;2.73;;
20458;SDS011;10388;52.314;7.938;2023-03-01T10:06:51;7.23;;;3.70;;
20458;SDS011;10388;52.314;7.938;2023-03-01T10:09:36;9.87;;;4.20;;
20458;SDS011;10388;52.314;7.938;2023-03-01T10:14:51;5.03;;;3.70;;
20458;SDS011;10388;52.314;7.938;2023-03-01T10:17:30;9.13;;;4.80;;
20458;SDS011;10388;52.314;7.938;2023-03-01T10:20:25;4.37;;;3.23;;
20458;SDS011;10388;52.314;7.938;2023-03-01T10:23:02;5.80;;;3.73;;
20458;SDS011;10388;52.314;7.938;2023-03-01T10:25:57;5.17;;;3.67;;
20458;SDS011;10388;52.314;7.938;2023-03-01T10:34:16;6.20;;;4.07;;
20458;SDS011;10388;52.314;7.938;2023-03-01T10:36:52;4.80;;;3.63;;
20458;SDS011;10388;52.314;7.938;2023-03-01T10:39:27;7.37;;;4.80;;
20458;SDS011;10388;52.314;7.938;2023-03-01T10:42:02;6.77;;;3.83;;
20458;SDS011;10388;52.314;7.938;2023-03-01T10:47:18;7.00;;;4.60;;
20458;SDS011;10388;52.314;7.938;2023-03-01T10:49:51;7.27;;;4.43;;
20458;SDS011;10388;52.314;7.938;2023-03-01T10:52:29;6.97;;;3.87;;
20458;SDS011;10388;52.314;7.938;2023-03-01T11:00:50;11.97;;;7.20;;
20458;SDS011;10388;52.314;7.938;2023-03-01T11:06:25;6.13;;;4.23;;
20458;SDS011;10388;52.314;7.938;2023-03-01T11:08:56;6.22;;;4.53;;
20458;SDS011;10388;52.314;7.938;2023-03-01T11:11:33;20.33;;;11.63;;
20458;SDS011;10388;52.314;7.938;2023-03-01T11:14:13;6.70;;;4.77;;
20458;SDS011;10388;52.314;7.938;2023-03-01T11:19:34;8.93;;;6.03;;
20458;SDS011;10388;52.314;7.938;2023-03-01T11:22:11;7.80;;;5.47;;
20458;SDS011;10388;52.314;7.938;2023-03-01T11:24:43;8.07;;;4.70;;
20458;SDS011;10388;52.314;7.938;2023-03-01T11:27:22;6.37;;;4.97;;
20458;SDS011;10388;52.314;7.938;2023-03-01T11:29:59;8.27;;;5.23;;
20458;SDS011;10388;52.314;7.938;2023-03-01T11:32:47;6.80;;;4.77;;
20458;SDS011;10388;52.314;7.938;2023-03-01T11:35:29;5.20;;;3.97;;
20458;SDS011;10388;52.314;7.938;2023-03-01T11:38:20;5.13;;;3.70;;
20458;SDS011;10388;52.314;7.938;2023-03-01T11:43:28;8.27;;;4.57;;
20458;SDS011;10388;52.314;7.938;2023-03-01T11:46:21;4.87;;;3.43;;
20458;SDS011;10388;52.314;7.938;2023-03-01T11:51:38;8.87;;;4.83;;
20458;SDS011;10388;52.314;7.938;2023-03-01T12:00:15;4.60;;;2.93;;
20458;SDS011;10388;52.314;7.938;2023-03-01T12:29:46;5.10;;;3.00;;
20458;SDS011;10388;52.314;7.938;2023-03-01T12:32:24;2.87;;;2.43;;
20458;SDS011;10388;52.314;7.938;2023-03-01T12:35:20;4.30;;;3.10;;
20458;SDS011;10388;52.314;7.938;2023-03-01T12:41:38;4.00;;;2.90;;
20458;SDS011;10388;52.314;7.938;2023-03-01T12:46:56;3.47;;;2.73;;
20458;SDS011;10388;52.314;7.938;2023-03-01T12:49:42;7.17;;;3.30;;
20458;SDS011;10388;52.314;7.938;2023-03-01T12:54:59;4.47;;;3.30;;
20458;SDS011;10388;52.314;7.938;2023-03-01T12:57:40;5.17;;;2.53;;
20458;SDS011;10388;52.314;7.938;2023-03-01T13:00:24;3.10;;;2.43;;
20458;SDS011;10388;52.314;7.938;2023-03-01T13:06:08;8.00;;;3.97;;
20458;SDS011;10388;52.314;7.938;2023-03-01T13:09:11;5.47;;;3.37;;
20458;SDS011;10388;52.314;7.938;2023-03-01T13:11:58;6.03;;;3.47;;
20458;SDS011;10388;52.314;7.938;2023-03-01T13:17:02;7.43;;;3.93;;
20458;SDS011;10388;52.314;7.938;2023-03-01T13:19:32;6.73;;;3.77;;
20458;SDS011;10388;52.314;7.938;2023-03-01T13:25:01;2.90;;;2.30;;
20458;SDS011;10388;52.314;7.938;2023-03-01T13:27:41;8.00;;;4.57;;
20458;SDS011;10388;52.314;7.938;2023-03-01T13:33:33;3.33;;;2.40;;
20458;SDS011;10388;52.314;7.938;2023-03-01T13:36:10;9.53;;;4.80;;
20458;SDS011;10388;52.314;7.938;2023-03-01T13:41:47;19.67;;;9.47;;
20458;SDS011;10388;52.314;7.938;2023-03-01T13:46:42;7.10;;;3.80;;
20458;SDS011;10388;52.314;7.938;2023-03-01T13:49:21;5.07;;;3.40;;
20458;SDS011;10388;52.314;7.938;2023-03-01T13:51:53;3.10;;;2.10;;
20458;SDS011;10388;52.314;7.938;2023-03-01T13:54:31;3.30;;;2.33;;
20458;SDS011;10388;52.314;7.938;2023-03-01T13:57:02;11.10;;;5.50;;
20458;SDS011;10388;52.314;7.938;2023-03-01T13:59:34;16.67;;;8.23;;
20458;SDS011;10388;52.314;7.938;2023-03-01T14:02:17;10.83;;;5.43;;
20458;SDS011;10388;52.314;7.938;2023-03-01T14:04:59;2.77;;;2.23;;
20458;SDS011;10388;52.314;7.938;2023-03-01T14:07:31;3.23;;;2.40;;
20458;SDS011;10388;52.314;7.938;2023-03-01T14:10:02;4.47;;;3.47;;
20458;SDS011;10388;52.314;7.938;2023-03-01T14:15:27;4.63;;;2.50;;
20458;SDS011;10388;52.314;7.938;2023-03-01T14:20:54;3.53;;;2.30;;
20458;SDS011;10388;52.314;7.938;2023-03-01T14:23:25;3.53;;;2.87;;
20458;SDS011;10388;52.314;7.938;2023-03-01T14:25:57;4.10;;;3.20;;
20458;SDS011;10388;52.314;7.938;2023-03-01T14:28:28;7.03;;;3.87;;
20458;SDS011;10388;52.314;7.938;2023-03-01T14:34:05;4.40;;;2.63;;
20458;SDS011;10388;52.314;7.938;2023-03-01T14:36:36;5.03;;;3.67;;
20458;SDS011;10388;52.314;7.938;2023-03-01T14:39:15;3.63;;;2.60;;
20458;SDS011;10388;52.314;7.938;2023-03-01T14:41:51;4.53;;;3.00;;
20458;SDS011;10388;52.314;7.938;2023-03-01T14:44:22;2.73;;;2.20;;
20458;SDS011;10388;52.314;7.938;2023-03-01T14:46:54;2.90;;;2.30;;
20458;SDS011;10388;52.314;7.938;2023-03-01T14:49:28;3.37;;;2.47;;
20458;SDS011;10388;52.314;7.938;2023-03-01T14:52:02;2.70;;;2.20;;
20458;SDS011;10388;52.314;7.938;2023-03-01T14:54:45;2.87;;;2.33;;
20458;SDS011;10388;52.314;7.938;2023-03-01T14:57:22;3.63;;;2.73;;
20458;SDS011;10388;52.314;7.938;2023-03-01T14:59:55;3.73;;;2.57;;
20458;SDS011;10388;52.314;7.938;2023-03-01T15:02:30;4.27;;;2.93;;
20458;SDS011;10388;52.314;7.938;2023-03-01T15:05:03;3.00;;;2.00;;
20458;SDS011;10388;52.314;7.938;2023-03-01T15:07:36;3.27;;;2.30;;
20458;SDS011;10388;52.314;7.938;2023-03-01T15:10:20;3.03;;;2.33;;
20458;SDS011;10388;52.314;7.938;2023-03-01T15:12:52;5.30;;;3.47;;
20458;SDS011;10388;52.314;7.938;2023-03-01T15:15:31;3.43;;;2.40;;
20458;SDS011;10388;52.314;7.938;2023-03-01T15:18:18;7.20;;;2.83;;
20458;SDS011;10388;52.314;7.938;2023-03-01T15:20:55;2.80;;;2.17;;
20458;SDS011;10388;52.314;7.938;2023-03-01T15:23:34;2.47;;;2.20;;
20458;SDS011;10388;52.314;7.938;2023-03-01T15:26:20;6.73;;;2.50;;
20458;SDS011;10388;52.314;7.938;2023-03-01T15:28:54;3.50;;;2.00;;
20458;SDS011;10388;52.314;7.938;2023-03-01T15:31:29;3.53;;;2.63;;
20458;SDS011;10388;52.314;7.938;2023-03-01T15:34:21;3.83;;;2.90;;
20458;SDS011;10388;52.314;7.938;2023-03-01T15:36:54;4.97;;;3.07;;
20458;SDS011;10388;52.314;7.938;2023-03-01T15:42:35;5.10;;;2.73;;
20458;SDS011;10388;52.314;7.938;2023-03-01T15:47:52;5.47;;;2.83;;
20458;SDS011;10388;52.314;7.938;2023-03-01T15:50:28;3.77;;;2.20;;
20458;SDS011;10388;52.314;7.938;2023-03-01T15:53:07;4.10;;;2.50;;
20458;SDS011;10388;52.314;7.938;2023-03-01T15:55:44;3.97;;;2.37;;
20458;SDS011;10388;52.314;7.938;2023-03-01T15:58:20;4.83;;;2.60;;
20458;SDS011;10388;52.314;7.938;2023-03-01T16:00:53;4.40;;;2.70;;
20458;SDS011;10388;52.314;7.938;2023-03-01T16:03:26;2.93;;;2.00;;
20458;SDS011;10388;52.314;7.938;2023-03-01T16:05:57;2.57;;;2.03;;
20458;SDS011;10388;52.314;7.938;2023-03-01T16:08:27;4.00;;;2.50;;
20458;SDS011;10388;52.314;7.938;2023-03-01T16:10:59;4.60;;;2.83;;
20458;SDS011;10388;52.314;7.938;2023-03-01T16:13:29;3.60;;;2.17;;
20458;SDS011;10388;52.314;7.938;2023-03-01T16:16:01;2.70;;;2.10;;
20458;SDS011;10388;52.314;7.938;2023-03-01T16:18:31;3.87;;;2.67;;
20458;SDS011;10388;52.314;7.938;2023-03-01T16:21:02;7.30;;;2.33;;
20458;SDS011;10388;52.314;7.938;2023-03-01T16:23:33;3.27;;;2.10;;
20458;SDS011;10388;52.314;7.938;2023-03-01T16:26:03;2.73;;;2.13;;
20458;SDS011;10388;52.314;7.938;2023-03-01T16:28:34;3.70;;;2.43;;
20458;SDS011;10388;52.314;7.938;2023-03-01T16:31:04;4.27;;;2.93;;
20458;SDS011;10388;52.314;7.938;2023-03-01T16:33:35;3.87;;;3.03;;
20458;SDS011;10388;52.314;7.938;2023-03-01T16:36:07;3.87;;;2.60;;
20458;SDS011;10388;52.314;7.938;2023-03-01T16:38:41;5.33;;;3.10;;
20458;SDS011;10388;52.314;7.938;2023-03-01T16:41:16;5.17;;;3.67;;
20458;SDS011;10388;52.314;7.938;2023-03-01T16:43:49;7.10;;;3.77;;
20458;SDS011;10388;52.314;7.938;2023-03-01T16:46:22;5.60;;;3.30;;
20458;SDS011;10388;52.314;7.938;2023-03-01T16:48:54;7.27;;;4.27;;
20458;SDS011;10388;52.314;7.938;2023-03-01T16:51:25;4.10;;;2.93;;
20458;SDS011;10388;52.314;7.938;2023-03-01T16:53:56;7.90;;;4.17;;
20458;SDS011;10388;52.314;7.938;2023-03-01T16:56:26;4.53;;;4.10;;
20458;SDS011;10388;52.314;7.938;2023-03-01T16:58:57;5.33;;;4.67;;
20458;SDS011;10388;52.314;7.938;2023-03-01T17:01:27;4.23;;;3.13;;
20458;SDS011;10388;52.314;7.938;2023-03-01T17:04:04;17.30;;;11.97;;
20458;SDS011;10388;52.314;7.938;2023-03-01T17:06:35;12.33;;;8.97;;
20458;SDS011;10388;52.314;7.938;2023-03-01T17:09:05;53.53;;;28.43;;
20458;SDS011;10388;52.314;7.938;2023-03-01T17:11:36;51.43;;;27.40;;
20458;SDS011;10388;52.314;7.938;2023-03-01T17:14:07;43.10;;;22.40;;
20458;SDS011;10388;52.314;7.938;2023-03-01T17:16:37;16.67;;;10.10;;
20458;SDS011;10388;52.314;7.938;2023-03-01T17:19:08;9.53;;;6.00;;
20458;SDS011;10388;52.314;7.938;2023-03-01T17:21:39;14.70;;;9.70;;
20458;SDS011;10388;52.314;7.938;2023-03-01T17:24:10;9.37;;;6.37;;
20458;SDS011;10388;52.314;7.938;2023-03-01T17:26:41;8.73;;;4.37;;
20458;SDS011;10388;52.314;7.938;2023-03-01T17:29:11;5.97;;;3.90;;
20458;SDS011;10388;52.314;7.938;2023-03-01T17:31:42;7.73;;;4.20;;
20458;SDS011;10388;52.314;7.938;2023-03-01T17:34:13;5.70;;;4.60;;
20458;SDS011;10388;52.314;7.938;2023-03-01T17:36:45;7.40;;;5.33;;
20458;SDS011;10388;52.314;7.938;2023-03-01T17:39:17;8.80;;;5.77;;
20458;SDS011;10388;52.314;7.938;2023-03-01T17:41:55;6.70;;;5.10;;
20458;SDS011;10388;52.314;7.938;2023-03-01T17:44:26;8.07;;;5.47;;
20458;SDS011;10388;52.314;7.938;2023-03-01T17:46:56;8.13;;;4.70;;
20458;SDS011;10388;52.314;7.938;2023-03-01T17:49:27;11.27;;;6.30;;
20458;SDS011;10388;52.314;7.938;2023-03-01T17:51:58;9.90;;;5.23;;
20458;SDS011;10388;52.314;7.938;2023-03-01T17:54:29;6.30;;;4.63;;
20458;SDS011;10388;52.314;7.938;2023-03-01T17:57:02;8.17;;;4.43;;
20458;SDS011;10388;52.314;7.938;2023-03-01T17:59:35;8.23;;;4.53;;
20458;SDS011;10388;52.314;7.938;2023-03-01T18:02:06;7.83;;;4.97;;
20458;SDS011;10388;52.314;7.938;2023-03-01T18:04:36;8.60;;;5.40;;
20458;SDS011;10388;52.314;7.938;2023-03-01T18:07:07;5.37;;;4.13;;
20458;SDS011;10388;52.314;7.938;2023-03-01T18:09:37;7.13;;;4.50;;
20458;SDS011;10388;52.314;7.938;2023-03-01T18:12:08;7.50;;;4.10;;
20458;SDS011;10388;52.314;7.938;2023-03-01T18:14:39;6.83;;;4.50;;
20458;SDS011;10388;52.314;7.938;2023-03-01T18:17:10;5.17;;;4.00;;
20458;SDS011;10388;52.314;7.938;2023-03-01T18:19:40;7.97;;;4.60;;
20458;SDS011;10388;52.314;7.938;2023-03-01T18:22:11;7.37;;;4.80;;
20458;SDS011;10388;52.314;7.938;2023-03-01T18:24:43;8.77;;;5.40;;
20458;SDS011;10388;52.314;7.938;2023-03-01T18:27:13;9.13;;;5.67;;
20458;SDS011;10388;52.314;7.938;2023-03-01T18:29:44;7.03;;;4.93;;
20458;SDS011;10388;52.314;7.938;2023-03-01T18:32:14;8.77;;;4.60;;
20458;SDS011;10388;52.314;7.938;2023-03-01T18:34:45;5.13;;;4.30;;
20458;SDS011;10388;52.314;7.938;2023-03-01T18:37:17;6.53;;;5.00;;
20458;SDS011;10388;52.314;7.938;2023-03-01T18:39:51;7.23;;;5.23;;
20458;SDS011;10388;52.314;7.938;2023-03-01T18:42:22;6.30;;;4.60;;
20458;SDS011;10388;52.314;7.938;2023-03-01T18:44:53;5.30;;;4.27;;
20458;SDS011;10388;52.314;7.938;2023-03-01T18:47:23;6.63;;;4.80;;
20458;SDS011;10388;52.314;7.938;2023-03-01T18:49:54;5.50;;;4.43;;
20458;SDS011;10388;52.314;7.938;2023-03-01T18:52:24;7.47;;;4.60;;
20458;SDS011;10388;52.314;7.938;2023-03-01T18:54:55;8.03;;;5.13;;
20458;SDS011;10388;52.314;7.938;2023-03-01T18:57:26;10.70;;;7.07;;
20458;SDS011;10388;52.314;7.938;2023-03-01T18:59:57;7.93;;;5.40;;
20458;SDS011;10388;52.314;7.938;2023-03-01T19:02:27;6.90;;;4.77;;
20458;SDS011;10388;52.314;7.938;2023-03-01T19:04:58;6.33;;;4.73;;
20458;SDS011;10388;52.314;7.938;2023-03-01T19:07:28;7.03;;;5.20;;
20458;SDS011;10388;52.314;7.938;2023-03-01T19:09:59;6.97;;;5.03;;
20458;SDS011;10388;52.314;7.938;2023-03-01T19:12:29;7.57;;;5.37;;
20458;SDS011;10388;52.314;7.938;2023-03-01T19:15:00;8.47;;;6.37;;
20458;SDS011;10388;52.314;7.938;2023-03-01T19:17:31;10.87;;;5.70;;
20458;SDS011;10388;52.314;7.938;2023-03-01T19:20:03;7.40;;;4.73;;
20458;SDS011;10388;52.314;7.938;2023-03-01T19:22:34;8.03;;;5.67;;
20458;SDS011;10388;52.314;7.938;2023-03-01T19:25:04;6.87;;;4.57;;
20458;SDS011;10388;52.314;7.938;2023-03-01T19:27:36;7.33;;;5.53;;
20458;SDS011;10388;52.314;7.938;2023-03-01T19:30:07;8.07;;;5.70;;
20458;SDS011;10388;52.314;7.938;2023-03-01T19:32:38;9.57;;;5.80;;
20458;SDS011;10388;52.314;7.938;2023-03-01T19:35:08;9.77;;;6.03;;
20458;SDS011;10388;52.314;7.938;2023-03-01T19:37:39;7.93;;;6.00;;
20458;SDS011;10388;52.314;7.938;2023-03-01T19:40:09;10.57;;;6.37;;
20458;SDS011;10388;52.314;7.938;2023-03-01T19:42:40;7.33;;;5.27;;
20458;SDS011;10388;52.314;7.938;2023-03-01T19:45:11;8.07;;;6.10;;
20458;SDS011;10388;52.314;7.938;2023-03-01T19:47:45;10.93;;;6.50;;
20458;SDS011;10388;52.314;7.938;2023-03-01T19:50:16;7.97;;;6.10;;
20458;SDS011;10388;52.314;7.938;2023-03-01T19:52:47;9.53;;;6.13;;
20458;SDS011;10388;52.314;7.938;2023-03-01T19:55:17;8.50;;;6.43;;
20458;SDS011;10388;52.314;7.938;2023-03-01T19:57:48;8.73;;;5.90;;
20458;SDS011;10388;52.314;7.938;2023-03-01T20:00:18;8.80;;;5.90;;
20458;SDS011;10388;52.314;7.938;2023-03-01T20:02:49;9.83;;;6.70;;
20458;SDS011;10388;52.314;7.938;2023-03-01T20:05:20;7.97;;;5.60;;
20458;SDS011;10388;52.314;7.938;2023-03-01T20:07:50;9.17;;;6.20;;
20458;SDS011;10388;52.314;7.938;2023-03-01T20:10:28;8.00;;;5.40;;
20458;SDS011;10388;52.314;7.938;2023-03-01T20:12:59;9.03;;;5.67;;
20458;SDS011;10388;52.314;7.938;2023-03-01T20:15:31;8.53;;;5.57;;
20458;SDS011;10388;52.314;7.938;2023-03-01T20:18:02;7.97;;;5.90;;
20458;SDS011;10388;52.314;7.938;2023-03-01T20:20:32;7.20;;;5.63;;
20458;SDS011;10388;52.314;7.938;2023-03-01T20:23:03;8.63;;;5.40;;
20458;SDS011;10388;52.314;7.938;2023-03-01T20:25:34;8.73;;;5.57;;
20458;SDS011;10388;52.314;7.938;2023-03-01T20:28:04;7.13;;;5.23;;
20458;SDS011;10388;52.314;7.938;2023-03-01T20:30:38;7.60;;;5.83;;
20458;SDS011;10388;52.314;7.938;2023-03-01T20:33:09;7.87;;;5.27;;
20458;SDS011;10388;52.314;7.938;2023-03-01T20:35:41;9.80;;;6.00;;
20458;SDS011;10388;52.314;7.938;2023-03-01T20:38:12;7.90;;;5.37;;
20458;SDS011;10388;52.314;7.938;2023-03-01T20:40:42;10.50;;;6.17;;
20458;SDS011;10388;52.314;7.938;2023-03-01T20:43:13;9.10;;;6.00;;